Terminal Aerodrome Forecast
Issued by NWS

Home | Current Version | Previous Version | Text Only | Print | Product List | Glossary On
Versions: 1 2 3 4 5 6 7 8 9 10 11 12 13 14 15 16
000
FTUS43 KMQT 200529
TAFIWD
TAF
KIWD 200529Z 2006/2106 17004KT P6SM BKN130
     FM200900 16004KT P6SM BKN045
     FM201200 16003KT P6SM VCSH BKN050
     FM201400 15003KT P6SM VCSH OVC020
     FM201500 14003KT P6SM -RA OVC003
     FM202300 14004KT 2SM BR VCSH OVC003
     FM210000 14004KT 3SM BR OVC003
     FM210200 14004KT 3SM BR OVC008=

USA.gov is the U.S. government's official web portal to all federal, state and local government web resources and services.